GMMX Airport Information

Runway Information
Runway 10 Length 10170 ft width 148 ft
Elevation 1506 ft Threshold 918 ft Heading 96
Runway 28 Length 10170 ft Width 148 ft
Elevation 1545 ft Threshold 0 ft Heading 276
Airport Frequencies
Type APP Name MARRAKECH Frequency 119.7 MHZ
Type TWR Name MARRAKECH Frequency 118.7 MHZ
Airport Navaids
Type NDB Name Marrakech Frequency 267 KHZ
Type VOR-DME Name Marrakech Frequency 113300 KHZ
Airport Weather Information & NOTAM
ADDS - METARS form results

(0040 UTC 17 June 2019)
Data provider http://aviationweather.gov/metar/data/
 
METAR text: GMMX 170030Z VRB02KT CAVOK 20/11 Q1019 NOSIG
Conditions at: GMMX (MARRAKECH/MENARA, MA) observed 0030 UTC 17 June 2019
Temperature: 20.0°C (68°F)
Dewpoint: 11.0°C (52°F) [RH = 56%]
Pressure (altimeter): 30.09 inches Hg (1019.0 mb)
Winds: variable direction winds at 2 MPH (2 knots; 1.0 m/s)
Visibility: 6 or more miles (10+ km)
Ceiling: ceiling and visibility are OK
Clouds: unknown
Weather: no significant weather observed at this time

METAR text: GMMX 170000Z 03003KT 350V060 CAVOK 20/11 Q1019 NOSIG
Conditions at: GMMX (MARRAKECH/MENARA, MA) observed 0000 UTC 17 June 2019
Temperature: 20.0°C (68°F)
Dewpoint: 11.0°C (52°F) [RH = 56%]
Pressure (altimeter): 30.09 inches Hg (1019.0 mb)
Winds: from the NNE (30 degrees) at 3 MPH (3 knots; 1.5 m/s)
Visibility: 6 or more miles (10+ km)
Ceiling: ceiling and visibility are OK
Clouds: unknown
Weather: no significant weather observed at this time

Forecast for: GMMX (MARRAKECH/MENARA, MA)
Text: TAF GMMX 162300Z 1700/1806 02005KT 8000 NSC
Forecast period: 0000 UTC 17 June 2019 to 0600 UTC 18 June 2019
Forecast type: FROM: standard forecast or significant change
Winds: from the NNE (20 degrees) at 6 MPH (5 knots; 2.6 m/s)
Visibility: 5 miles (8 km)
Ceiling: unknown
Clouds: missing
Weather: no significant weather forecast for this period
Text: TEMPO 1716/1722 32015KT
Forecast period: 1600 to 2200 UTC 17 June 2019
Forecast type: TEMPORARY: The following changes expected for less than half the time period
Winds: from the NW (320 degrees) at 17 MPH (15 knots; 7.7 m/s)
Visibility: missing
Ceiling: unknown
Clouds: missing
Weather: no significant weather forecast for this period